Time;durP1;ratioP1;P1;durP2;ratioP2;P2;SDS_P1;SDS_P2;PMS_P1;PMS_P2;Temp;Humidity;BMP_temperature;BMP_pressure;BME280_temperature;BME280_humidity;BME280_pressure;Samples;Min_cycle;Max_cycle;Signal;HPM_P1;HPM_P2
2024/02/27 00:01:35;;;;;;;6.05;3.15;;;10.30;99.90;;;;;;5054844;28;20032;-78
2024/02/27 00:04:01;;;;;;;4.78;2.65;;;10.30;99.90;;;;;;5054616;28;20025;-78
2024/02/27 00:06:30;;;;;;;5.28;2.83;;;10.30;99.90;;;;;;5055151;28;20051;-78
2024/02/27 00:08:56;;;;;;;6.50;2.78;;;10.30;99.90;;;;;;5055220;28;20036;-78
2024/02/27 00:11:22;;;;;;;5.22;2.90;;;10.20;99.90;;;;;;5054672;28;20108;-77
2024/02/27 00:13:48;;;;;;;6.45;3.03;;;10.20;99.90;;;;;;5055388;28;20056;-78
2024/02/27 00:16:18;;;;;;;5.05;3.28;;;10.20;99.90;;;;;;5055205;28;20028;-78
2024/02/27 00:18:44;;;;;;;5.78;2.47;;;10.10;99.90;;;;;;5054661;28;20017;-78
2024/02/27 00:21:10;;;;;;;5.90;2.97;;;10.20;99.90;;;;;;5070876;28;20055;-78
2024/02/27 00:23:36;;;;;;;4.85;3.03;;;10.20;99.90;;;;;;5069495;28;20588;-78
2024/02/27 00:26:02;;;;;;;5.85;3.13;;;10.20;99.90;;;;;;5053958;28;20391;-78
2024/02/27 00:28:28;;;;;;;6.38;3.15;;;10.10;99.90;;;;;;5069980;28;20025;-77
2024/02/27 00:30:54;;;;;;;7.00;3.13;;;10.10;99.90;;;;;;5055293;28;20163;-78
2024/02/27 00:33:19;;;;;;;5.18;3.15;;;10.10;99.90;;;;;;5070454;28;20479;-78
2024/02/27 00:35:45;;;;;;;6.10;3.10;;;10.10;99.90;;;;;;5053241;28;20028;-78
2024/02/27 00:38:10;;;;;;;5.10;3.20;;;10.10;99.90;;;;;;5054431;28;20104;-77
2024/02/27 00:40:37;;;;;;;7.10;3.38;;;10.10;99.90;;;;;;5054034;28;20466;-77
2024/02/27 00:43:03;;;;;;;6.43;3.35;;;10.10;99.90;;;;;;5070248;28;20037;-78
2024/02/27 00:45:29;;;;;;;6.13;2.97;;;10.10;99.90;;;;;;5054138;28;20055;-78
2024/02/27 00:47:56;;;;;;;6.05;3.55;;;10.10;99.90;;;;;;5053139;28;20036;-78
2024/02/27 00:50:22;;;;;;;6.35;3.80;;;10.00;99.90;;;;;;5053525;28;20060;-78
2024/02/27 00:52:48;;;;;;;5.38;3.20;;;10.00;99.90;;;;;;5052854;28;20103;-77
2024/02/27 00:55:15;;;;;;;4.72;2.97;;;10.00;99.90;;;;;;5054527;28;20467;-78
2024/02/27 00:57:41;;;;;;;6.05;3.60;;;10.00;99.90;;;;;;5068846;28;20024;-77
2024/02/27 01:00:12;;;;;;;5.85;3.17;;;10.10;99.90;;;;;;5069927;28;20044;-77
2024/02/27 01:02:38;;;;;;;7.15;3.47;;;10.00;99.90;;;;;;5052619;28;20033;-77
2024/02/27 01:05:05;;;;;;;6.20;3.45;;;10.00;99.90;;;;;;5054368;28;20075;-79
2024/02/27 01:07:31;;;;;;;7.78;3.67;;;10.00;99.90;;;;;;5053932;28;20025;-78
2024/02/27 01:09:57;;;;;;;7.05;3.60;;;10.00;99.90;;;;;;5070218;28;20481;-79
2024/02/27 01:12:24;;;;;;;5.93;3.42;;;10.00;99.90;;;;;;5070051;28;20120;-78
2024/02/27 01:14:50;;;;;;;7.88;3.50;;;10.00;99.90;;;;;;5052361;28;20029;-79
2024/02/27 01:17:15;;;;;;;7.38;3.80;;;10.00;99.90;;;;;;5069786;28;20160;-78
2024/02/27 01:19:41;;;;;;;6.90;3.70;;;10.00;99.90;;;;;;5052483;28;20399;-78
2024/02/27 01:22:07;;;;;;;7.03;3.90;;;10.00;99.90;;;;;;5054330;28;20489;-79
2024/02/27 01:24:33;;;;;;;5.47;3.40;;;9.90;99.90;;;;;;5069040;28;20028;-78
2024/02/27 01:26:59;;;;;;;5.97;3.40;;;9.90;99.90;;;;;;5069507;28;20516;-78
2024/02/27 01:29:25;;;;;;;5.90;3.53;;;9.90;99.90;;;;;;5069499;28;20060;-78
2024/02/27 01:31:52;;;;;;;5.63;3.33;;;9.90;99.90;;;;;;5053628;28;20051;-78
2024/02/27 01:34:18;;;;;;;5.47;3.35;;;9.90;99.90;;;;;;5052733;28;20025;-78
2024/02/27 01:36:44;;;;;;;6.88;3.30;;;9.80;99.90;;;;;;5068918;28;20120;-78
2024/02/27 01:39:10;;;;;;;6.47;3.75;;;9.80;99.90;;;;;;5053975;28;20039;-78
2024/02/27 01:41:38;;;;;;;7.65;3.47;;;9.80;99.90;;;;;;5068529;28;20458;-78
2024/02/27 01:44:04;;;;;;;7.07;3.25;;;9.80;99.90;;;;;;5052515;28;20029;-78
2024/02/27 01:46:30;;;;;;;8.02;3.10;;;9.80;99.90;;;;;;5068547;28;20128;-77
2024/02/27 01:48:56;;;;;;;4.90;3.15;;;9.80;99.90;;;;;;5069261;28;20461;-78
2024/02/27 01:51:23;;;;;;;6.25;3.05;;;9.70;99.90;;;;;;5053486;28;20021;-78
2024/02/27 01:53:52;;;;;;;5.90;3.00;;;9.70;99.90;;;;;;5053197;28;20025;-78
2024/02/27 01:56:19;;;;;;;6.30;3.00;;;9.80;99.90;;;;;;5069099;28;20036;-78
2024/02/27 01:58:46;;;;;;;4.20;2.92;;;9.70;99.90;;;;;;5051816;28;20037;-78
2024/02/27 02:01:13;;;;;;;7.00;3.33;;;9.70;99.90;;;;;;5053562;28;20555;-78
2024/02/27 02:03:40;;;;;;;5.10;2.60;;;9.70;99.90;;;;;;5052556;28;20082;-78
2024/02/27 02:06:06;;;;;;;5.75;3.10;;;9.70;99.90;;;;;;5052308;28;20036;-79
2024/02/27 02:08:33;;;;;;;6.25;3.63;;;9.70;99.90;;;;;;5051605;28;20454;-78
2024/02/27 02:11:04;;;;;;;9.68;5.10;;;9.60;99.90;;;;;;5053046;28;20025;-78
2024/02/27 02:13:29;;;;;;;5.90;3.40;;;9.60;99.90;;;;;;5051467;28;20478;-77
2024/02/27 02:15:55;;;;;;;5.25;3.47;;;9.50;99.90;;;;;;5052144;28;20059;-79
2024/02/27 02:18:20;;;;;;;5.50;3.10;;;9.50;99.90;;;;;;5052207;28;20021;-79
2024/02/27 02:20:46;;;;;;;7.15;3.90;;;9.50;99.90;;;;;;5052662;28;20029;-79
2024/02/27 02:23:12;;;;;;;7.22;3.53;;;9.50;99.90;;;;;;5053342;28;20037;-79
2024/02/27 02:25:37;;;;;;;8.20;4.10;;;9.40;99.90;;;;;;5052629;28;20086;-79
2024/02/27 02:28:04;;;;;;;7.82;3.95;;;9.40;99.90;;;;;;5051834;28;20103;-78
2024/02/27 02:30:30;;;;;;;6.63;3.70;;;9.40;99.90;;;;;;5068422;28;20029;-76
2024/02/27 02:32:56;;;;;;;5.55;3.58;;;9.40;99.90;;;;;;5067975;28;20036;-78
2024/02/27 02:35:22;;;;;;;8.65;3.70;;;9.40;99.90;;;;;;5052607;28;20481;-78
2024/02/27 02:37:49;;;;;;;7.30;4.22;;;9.30;99.90;;;;;;5052284;28;20029;-77
2024/02/27 02:40:21;;;;;;;7.38;3.88;;;9.30;99.90;;;;;;5052866;28;20025;-78
2024/02/27 02:42:47;;;;;;;8.57;4.00;;;9.20;99.90;;;;;;5067780;28;20076;-78
2024/02/27 02:45:13;;;;;;;7.85;4.43;;;9.20;99.90;;;;;;5052632;28;20078;-78
2024/02/27 02:47:39;;;;;;;8.75;4.40;;;9.20;99.90;;;;;;5067648;28;20021;-78
2024/02/27 02:50:06;;;;;;;9.07;5.20;;;9.10;99.90;;;;;;5068549;28;20136;-79
2024/02/27 02:52:31;;;;;;;8.07;4.60;;;9.20;99.90;;;;;;5068086;28;20037;-77
2024/02/27 02:54:57;;;;;;;7.85;4.50;;;9.10;99.90;;;;;;5068573;28;20032;-78
2024/02/27 02:57:23;;;;;;;10.00;5.00;;;9.00;99.90;;;;;;5052468;28;20160;-77
2024/02/27 02:59:49;;;;;;;9.60;5.88;;;9.00;99.90;;;;;;5051962;28;20025;-79
2024/02/27 03:02:14;;;;;;;11.40;5.15;;;9.00;99.90;;;;;;5068526;28;20041;-79
2024/02/27 03:04:40;;;;;;;11.45;5.70;;;9.00;99.90;;;;;;5052128;28;20025;-78
2024/02/27 03:07:06;;;;;;;12.45;5.78;;;8.90;99.90;;;;;;5068056;28;20082;-78
2024/02/27 03:09:32;;;;;;;10.05;5.53;;;8.90;99.90;;;;;;5067812;28;20520;-76
2024/02/27 03:12:01;;;;;;;11.40;6.15;;;8.90;99.90;;;;;;5051141;28;20029;-77
2024/02/27 03:14:27;;;;;;;10.93;5.68;;;8.80;99.90;;;;;;5052377;28;20082;-78
2024/02/27 03:16:55;;;;;;;12.68;5.97;;;8.90;99.90;;;;;;5052048;28;20704;-78
2024/02/27 03:19:21;;;;;;;16.52;7.57;;;8.80;99.90;;;;;;5067832;28;20048;-78
2024/02/27 03:21:47;;;;;;;12.80;6.97;;;8.70;99.90;;;;;;5067496;28;20029;-78
2024/02/27 03:24:12;;;;;;;12.98;6.13;;;8.80;99.90;;;;;;5051266;28;20104;-78
2024/02/27 03:26:38;;;;;;;13.13;6.32;;;8.70;99.90;;;;;;5067497;28;20139;-78
2024/02/27 03:29:04;;;;;;;12.90;6.53;;;8.70;99.90;;;;;;5068438;28;20029;-78
2024/02/27 03:31:29;;;;;;;14.90;7.45;;;8.70;99.90;;;;;;5067963;28;20017;-78
2024/02/27 03:33:55;;;;;;;15.27;7.30;;;8.60;99.90;;;;;;5067269;28;20064;-77
2024/02/27 03:36:20;;;;;;;13.93;6.93;;;8.70;99.90;;;;;;5052405;28;20021;-78
2024/02/27 03:38:46;;;;;;;16.38;7.75;;;8.60;99.90;;;;;;5050822;28;20092;-78
2024/02/27 03:41:12;;;;;;;16.75;7.57;;;8.60;99.90;;;;;;5051206;28;20459;-78
2024/02/27 03:43:39;;;;;;;17.40;8.40;;;8.60;99.90;;;;;;5052455;28;20033;-78
2024/02/27 03:46:05;;;;;;;15.25;8.23;;;8.70;99.90;;;;;;5056224;28;20052;-78
2024/02/27 03:48:30;;;;;;;14.73;8.23;;;8.60;99.90;;;;;;5054646;28;20025;-78
2024/02/27 03:50:56;;;;;;;15.18;8.27;;;8.70;99.90;;;;;;5055312;28;20059;-78
2024/02/27 03:53:21;;;;;;;15.45;8.27;;;8.70;99.90;;;;;;5054726;28;20090;-78
2024/02/27 03:55:47;;;;;;;17.98;8.52;;;8.70;99.90;;;;;;5055243;28;20458;-78
2024/02/27 03:58:12;;;;;;;13.90;7.82;;;8.70;99.90;;;;;;5055904;28;20048;-78
2024/02/27 04:00:38;;;;;;;16.60;8.15;;;8.70;99.90;;;;;;5055026;28;20021;-77
2024/02/27 04:03:04;;;;;;;18.00;8.15;;;8.70;99.90;;;;;;5054460;28;20037;-77
2024/02/27 04:05:29;;;;;;;16.20;8.70;;;8.70;99.90;;;;;;5054671;28;20029;-78
2024/02/27 04:07:55;;;;;;;15.77;8.35;;;8.80;99.90;;;;;;5054091;28;20240;-78
2024/02/27 04:10:20;;;;;;;17.70;8.48;;;8.80;99.90;;;;;;5054748;28;20078;-78
2024/02/27 04:12:46;;;;;;;16.77;8.30;;;8.70;99.90;;;;;;5054001;28;20037;-78
2024/02/27 04:15:12;;;;;;;16.77;8.77;;;8.80;99.90;;;;;;5054733;28;20072;-78
2024/02/27 04:17:37;;;;;;;12.75;7.15;;;8.70;99.90;;;;;;5055010;28;20050;-78
2024/02/27 04:20:05;;;;;;;16.13;8.52;;;8.80;99.90;;;;;;5054555;28;20025;-78
2024/02/27 04:22:31;;;;;;;16.42;9.10;;;8.80;99.90;;;;;;5054323;28;20037;-78
2024/02/27 04:24:57;;;;;;;16.90;8.77;;;8.80;99.90;;;;;;5054513;28;20431;-78
2024/02/27 04:27:22;;;;;;;14.60;8.02;;;8.80;99.90;;;;;;5054210;28;20025;-78
2024/02/27 04:29:48;;;;;;;19.15;8.93;;;8.80;99.90;;;;;;5053513;28;20021;-78
2024/02/27 04:32:14;;;;;;;17.30;8.75;;;8.80;99.90;;;;;;5054116;28;20031;-78
2024/02/27 04:34:42;;;;;;;16.65;8.48;;;8.80;99.90;;;;;;5054420;28;20025;-79
2024/02/27 04:37:08;;;;;;;16.65;7.80;;;8.80;99.90;;;;;;5053998;28;20466;-79
2024/02/27 04:39:33;;;;;;;17.35;8.90;;;8.80;99.90;;;;;;5053687;28;20048;-78
2024/02/27 04:41:59;;;;;;;17.35;8.80;;;8.80;99.90;;;;;;5052781;28;20045;-78
2024/02/27 04:44:24;;;;;;;16.65;8.93;;;8.80;99.90;;;;;;5054539;28;20041;-78
2024/02/27 04:46:50;;;;;;;18.35;9.00;;;8.80;99.90;;;;;;5054408;28;20470;-78
2024/02/27 04:49:15;;;;;;;18.80;9.18;;;8.70;99.90;;;;;;5054870;28;20025;-78
2024/02/27 04:51:42;;;;;;;16.40;9.38;;;8.70;99.90;;;;;;5054388;28;20033;-77
2024/02/27 04:54:08;;;;;;;18.45;8.88;;;8.70;99.90;;;;;;5054021;28;20027;-78
2024/02/27 04:56:33;;;;;;;18.77;9.27;;;8.70;99.90;;;;;;5053745;28;20025;-78
2024/02/27 04:59:00;;;;;;;20.30;10.45;;;8.70;99.90;;;;;;5054036;28;20075;-78
2024/02/27 05:01:26;;;;;;;19.90;9.57;;;8.70;99.90;;;;;;5054803;28;20071;-78
2024/02/27 05:03:52;;;;;;;23.98;11.93;;;8.70;99.90;;;;;;5052771;28;20473;-78
2024/02/27 05:06:18;;;;;;;21.42;10.50;;;8.70;99.90;;;;;;5054685;28;20021;-78
2024/02/27 05:08:44;;;;;;;24.83;11.93;;;8.70;99.90;;;;;;5052900;28;20021;-77
2024/02/27 05:11:09;;;;;;;24.85;12.13;;;8.70;99.90;;;;;;5053443;28;20524;-78
2024/02/27 05:13:35;;;;;;;21.33;11.23;;;8.70;99.90;;;;;;5053776;28;20063;-78
2024/02/27 05:16:00;;;;;;;25.70;12.27;;;8.70;99.90;;;;;;5052979;28;20025;-78
2024/02/27 05:18:26;;;;;;;27.55;12.02;;;8.60;99.90;;;;;;5053961;28;20029;-78
2024/02/27 05:20:52;;;;;;;23.70;11.82;;;8.70;99.90;;;;;;5052282;28;20025;-78
2024/02/27 05:23:17;;;;;;;24.17;11.73;;;8.60;99.90;;;;;;5052698;28;20064;-78
2024/02/27 05:25:43;;;;;;;23.25;12.60;;;8.60;99.90;;;;;;5052580;28;20139;-77
2024/02/27 05:28:09;;;;;;;28.95;12.93;;;8.60;99.90;;;;;;5053621;28;20485;-78
2024/02/27 05:30:35;;;;;;;26.95;12.45;;;8.70;99.90;;;;;;5054079;28;20052;-78
2024/02/27 05:33:00;;;;;;;24.52;12.23;;;8.60;99.90;;;;;;5053252;28;20234;-78
2024/02/27 05:35:26;;;;;;;24.42;12.00;;;8.60;99.90;;;;;;5052963;28;20025;-78
2024/02/27 05:37:52;;;;;;;25.15;13.82;;;8.60;99.90;;;;;;5053297;28;20025;-78
2024/02/27 05:40:17;;;;;;;26.27;12.70;;;8.60;99.90;;;;;;5052856;28;20028;-78
2024/02/27 05:42:43;;;;;;;28.67;13.57;;;8.50;99.90;;;;;;5052078;28;20036;-78
2024/02/27 05:45:09;;;;;;;24.73;13.18;;;8.50;99.90;;;;;;5053331;28;20506;-77
2024/02/27 05:47:34;;;;;;;26.00;13.48;;;8.40;99.90;;;;;;5052530;28;20053;-78
2024/02/27 05:50:00;;;;;;;27.58;13.32;;;8.50;99.90;;;;;;5052821;28;20067;-77
2024/02/27 05:52:25;;;;;;;27.30;13.60;;;8.50;99.90;;;;;;5053408;28;20028;-77
2024/02/27 05:54:51;;;;;;;27.30;13.75;;;8.50;99.90;;;;;;5051673;28;20025;-77
2024/02/27 05:57:17;;;;;;;29.20;14.68;;;8.50;99.90;;;;;;5052315;28;20028;-77
2024/02/27 05:59:42;;;;;;;27.92;14.00;;;8.50;99.90;;;;;;5051631;28;20029;-77
2024/02/27 06:02:08;;;;;;;31.08;14.45;;;8.40;99.90;;;;;;5052046;28;20128;-77
2024/02/27 06:04:34;;;;;;;25.88;13.65;;;8.40;99.90;;;;;;5051960;28;20086;-77
2024/02/27 06:07:00;;;;;;;28.92;14.63;;;8.40;99.90;;;;;;5052176;28;20025;-77
2024/02/27 06:09:25;;;;;;;29.13;14.02;;;8.40;99.90;;;;;;5052839;28;20025;-77
2024/02/27 06:11:51;;;;;;;27.08;13.30;;;8.40;99.90;;;;;;5050877;28;20111;-78
2024/02/27 06:14:17;;;;;;;29.35;14.70;;;8.40;99.90;;;;;;5052093;28;20386;-78
2024/02/27 06:16:43;;;;;;;27.20;13.63;;;8.40;99.90;;;;;;5051715;28;20033;-78
2024/02/27 06:19:09;;;;;;;29.33;13.63;;;8.40;99.90;;;;;;5051419;28;20044;-78
2024/02/27 06:24:32;;;;;;;25.77;13.15;;;8.30;99.90;;;;;;5051367;28;20390;-79
2024/02/27 06:26:58;;;;;;;27.52;14.00;;;8.20;99.90;;;;;;5056557;28;20021;-79
2024/02/27 06:29:24;;;;;;;29.52;14.85;;;8.20;99.90;;;;;;5060462;28;20083;-78
2024/02/27 06:31:49;;;;;;;27.30;13.45;;;8.20;99.90;;;;;;5052390;28;20025;-79
2024/02/27 06:34:15;;;;;;;29.13;14.10;;;8.20;99.90;;;;;;5052122;28;20052;-81
2024/02/27 06:36:40;;;;;;;30.63;14.52;;;8.10;99.90;;;;;;5052848;28;20467;-79
2024/02/27 06:39:06;;;;;;;30.20;14.13;;;8.20;99.90;;;;;;5051484;28;20112;-79
2024/02/27 06:41:31;;;;;;;27.35;13.90;;;8.20;99.90;;;;;;5053046;28;20055;-79
2024/02/27 06:43:57;;;;;;;24.75;13.23;;;8.20;99.90;;;;;;5058692;28;20040;-80
2024/02/27 06:46:23;;;;;;;29.27;14.25;;;8.20;99.90;;;;;;5052831;28;20090;-81
2024/02/27 06:48:48;;;;;;;30.65;14.27;;;8.20;99.90;;;;;;5052623;28;20032;-78
2024/02/27 06:51:14;;;;;;;28.35;13.88;;;8.20;99.90;;;;;;5052326;28;20025;-78
2024/02/27 06:53:41;;;;;;;30.27;13.82;;;8.20;99.90;;;;;;5052103;28;20044;-80
2024/02/27 06:56:06;;;;;;;28.85;13.73;;;8.20;99.90;;;;;;5051309;28;20043;-78
2024/02/27 06:58:32;;;;;;;27.98;14.23;;;8.10;99.90;;;;;;5051614;28;20021;-78
2024/02/27 07:00:57;;;;;;;27.67;13.55;;;8.10;99.90;;;;;;5051863;28;20033;-77
2024/02/27 07:03:23;;;;;;;31.50;15.00;;;8.20;99.90;;;;;;5050401;28;20068;-78
2024/02/27 07:05:49;;;;;;;32.00;13.55;;;8.30;99.90;;;;;;5050941;28;20036;-77
2024/02/27 07:08:14;;;;;;;30.70;14.63;;;8.30;99.90;;;;;;5052597;28;20413;-77
2024/02/27 07:10:40;;;;;;;26.05;13.48;;;8.30;99.90;;;;;;5051442;28;20029;-77
2024/02/27 07:13:06;;;;;;;31.67;14.27;;;8.30;99.90;;;;;;5050795;28;20439;-77
2024/02/27 07:15:36;;;;;;;25.55;13.68;;;8.30;99.90;;;;;;5051093;28;20032;-77
2024/02/27 07:18:02;;;;;;;29.45;14.02;;;8.40;99.90;;;;;;5051858;28;20466;-77
2024/02/27 07:20:29;;;;;;;28.77;14.13;;;8.40;99.90;;;;;;5055106;28;20028;-77
2024/02/27 07:22:55;;;;;;;27.52;13.73;;;8.40;99.90;;;;;;5054076;28;20033;-77
2024/02/27 07:25:20;;;;;;;28.80;13.43;;;8.40;99.90;;;;;;5054960;28;20079;-77
2024/02/27 07:27:48;;;;;;;28.15;14.35;;;8.50;99.90;;;;;;5055994;28;20460;-77
2024/02/27 07:30:17;;;;;;;29.70;14.98;;;8.50;99.90;;;;;;5055913;28;20021;-77
2024/02/27 07:32:43;;;;;;;30.25;14.93;;;8.50;99.90;;;;;;5054694;28;20040;-77
2024/02/27 07:35:09;;;;;;;28.75;13.27;;;8.50;99.90;;;;;;5053925;28;20029;-77
2024/02/27 07:37:34;;;;;;;29.25;14.02;;;8.60;99.90;;;;;;5055731;28;20032;-77
2024/02/27 07:40:00;;;;;;;29.63;13.70;;;8.60;99.90;;;;;;5053757;28;20128;-77
2024/02/27 07:42:26;;;;;;;30.95;13.90;;;8.60;99.90;;;;;;5055318;28;20069;-77
2024/02/27 07:44:52;;;;;;;25.60;12.80;;;8.60;99.90;;;;;;5053760;28;20140;-77
2024/02/27 07:47:17;;;;;;;29.88;14.45;;;8.60;99.90;;;;;;5054533;28;20122;-77
2024/02/27 07:49:47;;;;;;;27.90;13.18;;;8.60;99.90;;;;;;5054508;28;20029;-76
2024/02/27 07:52:13;;;;;;;25.55;13.45;;;8.60;99.90;;;;;;5053680;28;20100;-77
2024/02/27 07:54:39;;;;;;;30.38;13.88;;;8.60;99.90;;;;;;5054468;28;20351;-77
2024/02/27 07:57:05;;;;;;;29.33;13.57;;;8.60;99.90;;;;;;5053599;28;20425;-77
2024/02/27 07:59:31;;;;;;;24.23;12.90;;;8.70;99.90;;;;;;5055512;28;20025;-77
2024/02/27 08:01:57;;;;;;;28.25;12.82;;;8.80;99.90;;;;;;5054719;28;20029;-77
2024/02/27 08:04:22;;;;;;;25.95;13.13;;;8.80;99.90;;;;;;5055436;28;20029;-77
2024/02/27 08:06:48;;;;;;;26.42;13.55;;;8.90;99.90;;;;;;5055283;28;20032;-77
2024/02/27 08:09:16;;;;;;;25.35;13.70;;;8.90;99.90;;;;;;5054643;28;20079;-77
2024/02/27 08:11:41;;;;;;;23.92;12.45;;;9.00;99.90;;;;;;5054047;28;20029;-77
2024/02/27 08:14:07;;;;;;;24.25;12.40;;;9.00;99.90;;;;;;5054709;28;20039;-77
2024/02/27 08:16:33;;;;;;;29.20;13.63;;;9.00;99.90;;;;;;5055220;28;20025;-78
2024/02/27 08:18:59;;;;;;;25.25;12.27;;;9.00;99.90;;;;;;5053227;28;20024;-77
2024/02/27 08:21:25;;;;;;;25.30;13.35;;;9.00;99.90;;;;;;5053931;28;20032;-77
2024/02/27 08:23:51;;;;;;;26.08;13.23;;;9.00;99.90;;;;;;5054527;28;20061;-76
2024/02/27 08:26:16;;;;;;;26.83;12.90;;;9.00;99.90;;;;;;5054842;28;20068;-77
2024/02/27 08:28:42;;;;;;;27.50;13.20;;;9.00;99.90;;;;;;5053487;28;20140;-77
2024/02/27 08:31:07;;;;;;;23.67;12.23;;;9.10;99.90;;;;;;5052956;28;20549;-77
2024/02/27 08:33:34;;;;;;;26.20;13.05;;;9.10;99.90;;;;;;5053696;28;20033;-77
2024/02/27 08:35:59;;;;;;;25.75;12.90;;;9.20;99.90;;;;;;5054200;28;20024;-77
2024/02/27 08:38:25;;;;;;;25.15;12.90;;;9.20;99.90;;;;;;5054676;28;20029;-77
2024/02/27 08:40:50;;;;;;;25.13;12.63;;;9.40;99.90;;;;;;5053483;28;20463;-77
2024/02/27 08:43:16;;;;;;;27.23;12.77;;;9.40;99.90;;;;;;5054236;28;20044;-77
2024/02/27 08:45:42;;;;;;;26.70;12.60;;;9.50;99.90;;;;;;5054208;28;20057;-77
2024/02/27 08:48:08;;;;;;;26.05;11.63;;;9.60;99.90;;;;;;5052679;28;20025;-77
2024/02/27 08:50:34;;;;;;;24.38;12.30;;;9.70;99.90;;;;;;5054155;28;20484;-77
2024/02/27 08:52:59;;;;;;;24.58;12.45;;;9.80;99.90;;;;;;5052598;28;20062;-77
2024/02/27 08:55:26;;;;;;;22.10;11.52;;;9.70;99.90;;;;;;5053088;28;20063;-77
2024/02/27 08:57:52;;;;;;;25.50;12.45;;;9.70;99.90;;;;;;5053193;28;20052;-77
2024/02/27 09:00:18;;;;;;;22.88;12.05;;;9.70;99.90;;;;;;5054366;28;20064;-77
2024/02/27 09:02:44;;;;;;;21.55;10.80;;;9.70;99.90;;;;;;5054233;28;20029;-77
2024/02/27 09:05:09;;;;;;;24.52;12.40;;;9.70;99.90;;;;;;5053503;28;20485;-77
2024/02/27 09:07:42;;;;;;;26.60;12.48;;;9.60;99.90;;;;;;5053198;28;20060;-77
2024/02/27 09:10:11;;;;;;;26.45;12.48;;;9.60;99.90;;;;;;5053498;28;20025;-77
2024/02/27 09:12:38;;;;;;;26.30;12.85;;;9.70;99.90;;;;;;5052690;28;20044;-77
2024/02/27 09:15:04;;;;;;;23.83;12.77;;;9.60;99.90;;;;;;5053430;28;20108;-77
2024/02/27 09:17:31;;;;;;;26.77;12.25;;;9.60;99.90;;;;;;5053980;28;20025;-77
2024/02/27 09:20:01;;;;;;;25.50;12.77;;;9.60;99.90;;;;;;5052314;28;20029;-77
2024/02/27 09:22:26;;;;;;;23.77;12.02;;;9.60;99.90;;;;;;5052377;28;20033;-77
2024/02/27 09:24:52;;;;;;;26.20;12.52;;;9.60;99.90;;;;;;5052597;28;20036;-77
2024/02/27 09:27:18;;;;;;;23.08;12.25;;;9.60;99.90;;;;;;5052055;28;20024;-77
2024/02/27 09:29:45;;;;;;;22.95;12.25;;;9.60;99.90;;;;;;5053736;28;20025;-77
2024/02/27 09:32:11;;;;;;;22.55;12.07;;;9.60;99.90;;;;;;5053259;28;20029;-77
2024/02/27 09:34:38;;;;;;;24.35;12.68;;;9.60;99.90;;;;;;5052336;28;20032;-77
2024/02/27 09:37:04;;;;;;;21.92;12.05;;;9.70;99.90;;;;;;5052972;28;20025;-77
2024/02/27 09:39:30;;;;;;;32.58;12.63;;;9.70;99.90;;;;;;5053698;28;20033;-77
2024/02/27 09:42:12;;;;;;;23.27;11.73;;;9.70;99.90;;;;;;5051290;28;20032;-76
2024/02/27 09:44:42;;;;;;;24.50;12.43;;;9.80;99.90;;;;;;5052320;28;20057;-77
2024/02/27 09:47:09;;;;;;;22.83;11.55;;;9.90;99.90;;;;;;5051680;28;20033;-77
2024/02/27 09:49:45;;;;;;;21.27;11.18;;;10.00;99.90;;;;;;5052292;28;20124;-77
2024/02/27 09:52:13;;;;;;;24.83;12.88;;;10.00;99.90;;;;;;5053028;28;20025;-77
2024/02/27 09:54:39;;;;;;;22.20;11.13;;;10.10;99.90;;;;;;5052933;28;20363;-77
2024/02/27 09:57:05;;;;;;;24.50;12.45;;;10.10;99.90;;;;;;5051520;28;20036;-77
2024/02/27 09:59:31;;;;;;;21.15;11.15;;;10.10;99.90;;;;;;5053112;28;20104;-77
2024/02/27 10:02:06;;;;;;;24.42;12.00;;;10.20;99.90;;;;;;5052563;28;20029;-75
2024/02/27 10:04:36;;;;;;;21.65;11.05;;;10.30;99.90;;;;;;5052029;28;20541;-77
2024/02/27 10:07:08;;;;;;;22.33;11.40;;;10.40;99.90;;;;;;5050926;28;20074;-77
2024/02/27 10:09:46;;;;;;;;;;;10.40;99.90;;;;;;5052299;28;20021;-77
2024/02/27 10:12:13;;;;;;;23.00;11.68;;;10.40;99.90;;;;;;5052626;28;19909;-77
2024/02/27 10:14:39;;;;;;;22.77;11.68;;;10.40;99.90;;;;;;5051883;28;20051;-77
2024/02/27 10:17:09;;;;;;;23.48;11.90;;;10.50;99.90;;;;;;5051267;28;20097;-77
2024/02/27 10:19:36;;;;;;;25.13;11.55;;;10.50;99.90;;;;;;5052760;28;20032;-77
2024/02/27 10:22:03;;;;;;;24.02;12.00;;;10.50;99.90;;;;;;5051058;28;20064;-77
2024/02/27 10:24:29;;;;;;;26.35;12.55;;;10.50;99.90;;;;;;5052902;28;20485;-77
2024/02/27 10:27:01;;;;;;;24.30;11.88;;;10.50;99.90;;;;;;5052845;28;20025;-77
2024/02/27 10:29:27;;;;;;;23.65;11.48;;;10.60;99.90;;;;;;5051708;28;20170;-77
2024/02/27 10:31:54;;;;;;;21.55;11.30;;;10.60;99.90;;;;;;5051448;28;20449;-77
2024/02/27 10:34:22;;;;;;;25.88;12.85;;;10.60;99.90;;;;;;5052152;28;20021;-77
2024/02/27 10:37:02;;;;;;;22.98;11.30;;;10.60;99.90;;;;;;5052881;28;20025;-77
2024/02/27 10:39:31;;;;;;;24.95;11.45;;;10.60;99.90;;;;;;5051670;28;20111;-77
2024/02/27 10:41:58;;;;;;;25.88;11.95;;;10.60;99.90;;;;;;5052442;28;20515;-77
2024/02/27 10:44:26;;;;;;;24.02;11.77;;;10.70;99.90;;;;;;5052088;28;20025;-77
2024/02/27 10:46:54;;;;;;;22.17;11.30;;;10.70;99.90;;;;;;5051625;28;20025;-77
2024/02/27 10:49:20;;;;;;;22.23;11.23;;;10.70;99.90;;;;;;5050728;28;20036;-77
2024/02/27 10:51:47;;;;;;;25.13;12.02;;;10.70;99.90;;;;;;5051277;28;20029;-77
2024/02/27 10:54:16;;;;;;;22.38;11.98;;;10.80;99.90;;;;;;5054053;28;20029;-77
2024/02/27 10:56:43;;;;;;;23.52;11.93;;;10.80;99.90;;;;;;5055491;28;20029;-77
2024/02/27 10:59:09;;;;;;;20.98;10.32;;;10.70;99.90;;;;;;5054794;28;20032;-77
2024/02/27 11:01:36;;;;;;;21.27;10.43;;;10.70;99.90;;;;;;5056463;28;20029;-77
2024/02/27 11:04:05;;;;;;;20.80;10.43;;;10.70;99.90;;;;;;5054694;28;20036;-76
2024/02/27 11:06:33;;;;;;;22.63;11.38;;;10.80;99.90;;;;;;5055118;28;20474;-77
2024/02/27 11:09:07;;;;;;;21.50;11.23;;;10.80;99.90;;;;;;5056288;28;20070;-77
2024/02/27 11:11:35;;;;;;;21.20;10.68;;;10.80;99.90;;;;;;5055239;28;20383;-77
2024/02/27 11:14:06;;;;;;;18.65;9.90;;;10.90;99.90;;;;;;5055657;28;20029;-76
2024/02/27 11:16:35;;;;;;;21.55;10.45;;;10.90;99.90;;;;;;5054882;28;20021;-77
2024/02/27 11:19:10;;;;;;;21.33;9.95;;;11.00;99.90;;;;;;5055206;28;20106;-78
2024/02/27 11:21:37;;;;;;;20.42;11.15;;;11.00;99.90;;;;;;5054659;28;20029;-77
2024/02/27 11:24:03;;;;;;;21.02;10.90;;;11.00;99.90;;;;;;5055461;28;20044;-77
2024/02/27 11:26:30;;;;;;;22.90;10.63;;;11.10;99.90;;;;;;5054752;28;20028;-77
2024/02/27 11:28:56;;;;;;;20.95;11.00;;;11.10;99.90;;;;;;5056037;28;20053;-77
2024/02/27 11:31:23;;;;;;;22.85;11.43;;;11.10;99.90;;;;;;5055311;28;20037;-77
2024/02/27 11:33:51;;;;;;;20.90;10.55;;;11.20;99.90;;;;;;5055804;28;20515;-77
2024/02/27 11:36:16;;;;;;;22.92;11.63;;;11.30;99.90;;;;;;5055306;28;20459;-77
2024/02/27 11:38:46;;;;;;;20.60;10.60;;;11.40;99.90;;;;;;5055812;28;20078;-77
2024/02/27 11:41:18;;;;;;;20.77;10.50;;;11.40;99.90;;;;;;5053519;28;20104;-77
2024/02/27 11:43:48;;;;;;;19.77;10.63;;;11.40;99.90;;;;;;5055802;28;20040;-77
2024/02/27 11:46:34;;;;;;;21.80;10.35;;;11.40;99.90;;;;;;5053804;28;20059;-77
2024/02/27 11:49:00;;;;;;;20.80;10.32;;;11.50;99.90;;;;;;5054627;28;20391;-77
2024/02/27 11:51:45;;;;;;;20.98;10.70;;;11.50;99.90;;;;;;5053665;28;20029;-77
2024/02/27 11:54:11;;;;;;;19.42;10.98;;;11.60;99.90;;;;;;5054587;28;20039;-77
2024/02/27 11:56:40;;;;;;;20.40;11.35;;;11.60;99.90;;;;;;5054364;28;20124;-77
2024/02/27 11:59:09;;;;;;;18.40;10.23;;;11.70;99.90;;;;;;5053460;28;20386;-76
2024/02/27 12:01:35;;;;;;;21.02;10.45;;;11.70;99.90;;;;;;5055338;28;20078;-77
2024/02/27 12:04:06;;;;;;;17.63;10.20;;;11.80;99.90;;;;;;5054746;28;20037;-77
2024/02/27 12:06:33;;;;;;;19.70;10.10;;;11.80;99.90;;;;;;5053716;28;20050;-77
2024/02/27 12:08:59;;;;;;;18.25;9.68;;;11.80;99.90;;;;;;5053925;28;20033;-77
2024/02/27 12:11:24;;;;;;;18.88;9.40;;;11.80;99.90;;;;;;5053275;28;20025;-77
2024/02/27 12:13:50;;;;;;;20.50;10.73;;;11.80;99.90;;;;;;5053939;28;20040;-77
2024/02/27 12:16:27;;;;;;;18.02;9.55;;;11.80;99.90;;;;;;5053172;28;20382;-77
2024/02/27 12:18:59;;;;;;;21.35;9.93;;;11.80;99.90;;;;;;5054851;28;20474;-77
2024/02/27 12:21:32;;;;;;;19.92;10.07;;;11.70;99.90;;;;;;5054291;28;20219;-77
2024/02/27 12:24:15;;;;;;;18.15;10.18;;;11.70;99.90;;;;;;5053870;28;20033;-77
2024/02/27 12:26:42;;;;;;;23.25;10.93;;;11.70;99.90;;;;;;5053778;28;20025;-77
2024/02/27 12:29:09;;;;;;;19.48;10.10;;;11.70;99.90;;;;;;5054244;28;20033;-77
2024/02/27 12:31:36;;;;;;;18.77;9.30;;;11.70;99.90;;;;;;5053915;28;20021;-77
2024/02/27 12:34:02;;;;;;;20.33;9.90;;;11.60;99.90;;;;;;5054955;28;20039;-77
2024/02/27 12:36:28;;;;;;;18.95;9.27;;;11.50;99.90;;;;;;5053992;28;20386;-77
2024/02/27 12:38:55;;;;;;;16.98;9.70;;;11.50;99.90;;;;;;5054679;28;20029;-78
2024/02/27 12:41:21;;;;;;;18.58;9.73;;;11.50;99.90;;;;;;5052812;28;20033;-77